Time;durP1;ratioP1;P1;durP2;ratioP2;P2;SDS_P1;SDS_P2;PMS_P1;PMS_P2;Temp;Humidity;BMP_temperature;BMP_pressure;BME280_temperature;BME280_humidity;BME280_pressure;Samples;Min_cycle;Max_cycle;Signal;HPM_P1;HPM_P2
2022/07/22 00:01:49;;;;;;;5.03;4.35;;;22.40;99.90;;;-141.84;53.75;21444.13;5049989;28;20211;-61
2022/07/22 00:04:17;;;;;;;4.68;4.20;;;22.40;99.90;;;-141.84;54.93;21358.75;5049719;28;20304;-63
2022/07/22 00:06:46;;;;;;;4.78;4.38;;;22.30;99.90;;;-141.84;54.06;21456.34;5049397;28;20655;-62
2022/07/22 00:09:14;;;;;;;4.80;4.28;;;22.30;99.90;;;-141.84;54.55;21383.13;5049199;28;20229;-62
2022/07/22 00:11:44;;;;;;;5.97;4.53;;;22.30;99.90;;;-141.84;55.48;21340.44;5049622;28;20312;-61
2022/07/22 00:14:12;;;;;;;5.00;4.60;;;22.20;99.90;;;-141.84;56.01;21311.97;5052144;28;20228;-63
2022/07/22 00:16:41;;;;;;;5.20;4.68;;;22.10;99.90;;;-141.84;56.44;21346.53;5053046;28;20704;-62
2022/07/22 00:19:09;;;;;;;5.00;4.60;;;22.00;99.90;;;-141.84;55.67;21348.56;5052435;28;20233;-63
2022/07/22 00:21:37;;;;;;;4.80;4.38;;;22.10;99.90;;;-141.84;55.76;21352.63;5052449;28;20775;-63
2022/07/22 00:24:06;;;;;;;5.40;4.88;;;22.00;99.90;;;-141.84;56.32;21297.75;5052595;28;20564;-62
2022/07/22 00:26:35;;;;;;;5.32;4.75;;;21.90;99.90;;;-141.84;56.49;21303.84;5052853;28;20252;-62
2022/07/22 00:29:04;;;;;;;5.00;4.60;;;21.90;99.90;;;-141.84;56.86;21265.22;5052445;28;20736;-63
2022/07/22 00:31:33;;;;;;;5.05;4.65;;;21.90;99.90;;;-141.84;56.75;21281.47;5053188;28;20296;-62
2022/07/22 00:34:02;;;;;;;4.75;4.30;;;21.80;99.90;;;-141.84;57.12;21326.22;5052678;28;20800;-63
2022/07/22 00:36:31;;;;;;;4.82;4.35;;;21.80;99.90;;;-141.84;57.61;21236.75;5052193;28;20260;-62
2022/07/22 00:39:00;;;;;;;5.05;4.63;;;21.80;99.90;;;-141.84;57.31;21287.56;5052025;28;20229;-62
2022/07/22 00:41:28;;;;;;;5.03;4.10;;;21.70;99.90;;;-141.84;58.23;21208.28;5052386;28;20248;-61
2022/07/22 00:44:01;;;;;;;5.07;4.50;;;21.70;99.90;;;-141.84;57.65;21265.22;5052452;28;20263;-62
2022/07/22 00:46:32;;;;;;;5.00;4.50;;;21.60;99.90;;;-141.84;57.95;21253.00;5053178;28;20471;-63
2022/07/22 00:49:05;;;;;;;5.15;4.60;;;21.60;99.90;;;-141.84;57.71;21299.78;5052082;28;20225;-63
2022/07/22 00:51:34;;;;;;;6.38;5.10;;;21.60;99.90;;;-141.84;58.46;21220.47;5052233;28;20311;-61
2022/07/22 00:54:03;;;;;;;5.20;4.45;;;21.50;99.90;;;-141.84;59.05;21198.13;5051686;28;20312;-62
2022/07/22 00:56:32;;;;;;;4.75;4.35;;;21.50;99.90;;;-141.84;59.45;21167.63;5052299;28;20304;-62
2022/07/22 00:59:07;;;;;;;5.00;4.60;;;21.40;99.90;;;-141.84;59.38;21169.66;5052053;28;20220;-62
2022/07/22 01:01:36;;;;;;;6.28;4.78;;;21.40;99.90;;;-141.84;59.87;21171.69;5052727;28;20224;-62
2022/07/22 01:04:05;;;;;;;5.00;4.50;;;21.30;99.90;;;-141.84;58.42;21259.13;5052061;28;20258;-61
2022/07/22 01:06:34;;;;;;;4.95;4.55;;;21.40;99.90;;;-141.84;58.74;21175.75;5051731;28;20739;-62
2022/07/22 01:09:02;;;;;;;4.93;4.45;;;21.40;99.90;;;-141.84;59.90;21192.03;5051646;28;20305;-62
2022/07/22 01:11:30;;;;;;;4.95;4.45;;;21.30;99.90;;;-141.84;59.93;21175.75;5051799;28;20229;-62
2022/07/22 01:13:59;;;;;;;4.95;4.55;;;21.30;99.90;;;-141.84;60.07;21118.84;5052004;28;20592;-62
2022/07/22 01:16:27;;;;;;;5.30;4.80;;;21.20;99.90;;;-141.84;60.47;21131.03;5052138;28;20228;-62
2022/07/22 01:18:56;;;;;;;4.97;4.47;;;21.20;99.90;;;-141.84;60.20;21133.06;5051376;28;20221;-62
2022/07/22 01:21:26;;;;;;;4.70;4.30;;;21.20;99.90;;;-141.84;59.69;21139.16;5051267;28;20304;-61
2022/07/22 01:23:54;;;;;;;5.20;4.78;;;21.20;99.90;;;-141.84;59.18;21185.91;5051097;28;20239;-62
2022/07/22 01:26:23;;;;;;;5.63;4.65;;;21.20;99.90;;;-141.84;59.36;21175.75;5050832;28;20227;-62
2022/07/22 01:28:51;;;;;;;5.00;4.60;;;21.30;99.90;;;-141.84;60.69;21143.22;5051511;28;20668;-63
2022/07/22 01:31:19;;;;;;;4.90;4.50;;;21.30;99.90;;;-141.84;61.27;21070.03;5051834;28;20267;-62
2022/07/22 01:33:48;;;;;;;5.15;4.75;;;21.20;99.90;;;-141.84;61.46;21092.41;5051448;28;20233;-62
2022/07/22 01:36:16;;;;;;;6.53;5.22;;;21.10;99.90;;;-141.84;60.38;21147.28;5051165;28;20248;-63
2022/07/22 01:38:45;;;;;;;5.30;4.72;;;21.10;99.90;;;-141.84;60.22;21139.16;5051073;28;20233;-62
2022/07/22 01:41:14;;;;;;;5.22;4.28;;;21.20;99.90;;;-141.84;59.90;21163.56;5051150;28;20313;-62
2022/07/22 01:43:42;;;;;;;4.97;4.55;;;21.20;99.90;;;-141.84;60.47;21159.50;5051946;28;20201;-62
2022/07/22 01:46:10;;;;;;;5.63;5.05;;;21.20;99.90;;;-141.84;60.42;21163.56;5050874;28;20221;-62
2022/07/22 01:48:39;;;;;;;5.30;4.80;;;21.20;99.90;;;-141.84;61.42;21094.44;5051189;28;20225;-62
2022/07/22 01:51:07;;;;;;;5.05;4.65;;;21.10;99.90;;;-141.84;60.61;21112.72;5050962;28;20225;-61
2022/07/22 01:53:36;;;;;;;5.25;4.75;;;21.10;99.90;;;-141.84;61.45;21098.50;5050729;28;20661;-62
2022/07/22 01:56:06;;;;;;;4.95;4.40;;;21.00;99.90;;;-141.84;60.68;21145.25;5050951;28;20217;-63
2022/07/22 01:58:34;;;;;;;5.97;4.57;;;21.00;99.90;;;-141.84;61.56;21049.72;5051788;28;20212;-61
2022/07/22 02:01:08;;;;;;;5.35;4.55;;;20.90;99.90;;;-141.84;62.56;21063.94;5050470;28;20414;-62
2022/07/22 02:03:37;;;;;;;7.18;4.80;;;20.80;99.90;;;-141.84;62.21;21053.78;5050942;28;20237;-62
2022/07/22 02:06:06;;;;;;;5.10;4.60;;;20.80;99.90;;;-141.84;62.62;21068.00;5050663;28;20233;-62
2022/07/22 02:08:35;;;;;;;5.32;4.82;;;20.70;99.90;;;-141.84;62.43;21053.78;5050673;28;20680;-62
2022/07/22 02:11:05;;;;;;;5.28;4.80;;;20.70;99.90;;;-141.84;61.97;21065.97;5050823;28;20568;-62
2022/07/22 02:13:33;;;;;;;6.75;4.80;;;20.70;99.90;;;-141.84;62.66;21017.19;5051256;28;20289;-62
2022/07/22 02:16:02;;;;;;;5.53;5.00;;;20.70;99.90;;;-141.84;62.95;21041.56;5050383;28;20233;-62
2022/07/22 02:18:30;;;;;;;5.05;4.65;;;20.60;99.90;;;-141.84;63.38;20986.69;5050641;28;20228;-61
2022/07/22 02:20:58;;;;;;;5.82;5.13;;;20.60;99.90;;;-141.84;63.08;20996.84;5050586;28;20579;-62
2022/07/22 02:23:26;;;;;;;5.85;5.32;;;20.50;99.90;;;-141.84;63.56;21007.00;5050311;28;20224;-62
2022/07/22 02:25:54;;;;;;;5.70;5.20;;;20.50;99.90;;;-141.84;64.57;20944.00;5050532;28;20202;-61
2022/07/22 02:28:24;;;;;;;6.15;5.55;;;20.40;99.90;;;-141.84;64.64;20984.66;5051189;28;20216;-61
2022/07/22 02:30:52;;;;;;;6.35;5.75;;;20.30;99.90;;;-141.84;64.63;20960.25;5050205;28;20239;-63
2022/07/22 02:33:21;;;;;;;5.65;4.93;;;20.30;99.90;;;-141.84;65.09;20923.66;5050267;28;20266;-62
2022/07/22 02:35:49;;;;;;;5.40;5.00;;;20.20;99.90;;;-141.84;65.34;20941.97;5050047;28;20247;-62
2022/07/22 02:38:17;;;;;;;6.45;4.88;;;20.20;99.90;;;-141.84;65.06;20939.94;5050127;28;20225;-61
2022/07/22 02:40:45;;;;;;;6.10;5.53;;;20.20;99.90;;;-141.84;64.92;20939.94;5050855;28;20294;-61
2022/07/22 02:43:14;;;;;;;7.50;5.60;;;20.20;99.90;;;-141.84;65.21;20878.94;5050135;28;20687;-61
2022/07/22 02:45:43;;;;;;;6.50;5.65;;;20.20;99.90;;;-141.84;65.57;20935.88;5050229;28;20772;-62
2022/07/22 02:48:11;;;;;;;7.35;6.13;;;20.10;99.90;;;-141.84;65.28;20939.94;5050122;28;20232;-62
2022/07/22 02:50:46;;;;;;;7.05;5.75;;;20.10;99.90;;;-141.84;65.88;20956.19;5050076;28;20244;-62
2022/07/22 02:53:14;;;;;;;5.80;5.22;;;20.10;99.90;;;-141.84;65.88;20925.69;5049803;28;20225;-63
2022/07/22 02:55:42;;;;;;;6.43;5.82;;;20.10;99.90;;;-141.84;65.45;20913.50;5050708;28;20288;-62
2022/07/22 02:58:11;;;;;;;6.63;5.97;;;20.10;99.90;;;-141.84;65.53;20915.53;5049617;28;20348;-62
2022/07/22 03:00:39;;;;;;;6.70;6.10;;;20.10;99.90;;;-141.84;65.62;20911.47;5049856;28;20229;-62
2022/07/22 03:03:09;;;;;;;6.18;5.65;;;20.00;99.90;;;-141.84;66.27;20944.00;5049615;28;20252;-61
2022/07/22 03:05:37;;;;;;;6.50;6.00;;;20.00;99.90;;;-141.84;66.54;20891.13;5050065;28;20248;-62
2022/07/22 03:08:05;;;;;;;9.13;6.32;;;19.90;99.90;;;-141.84;67.24;20842.34;5049807;28;20193;-61
2022/07/22 03:10:33;;;;;;;6.13;5.63;;;19.90;99.90;;;-141.84;67.02;20868.78;5050010;28;20296;-62
2022/07/22 03:13:01;;;;;;;6.82;6.22;;;19.80;99.90;;;-141.84;67.44;20844.38;5049614;28;20704;-63
2022/07/22 03:15:29;;;;;;;7.03;6.43;;;19.80;99.90;;;-141.84;66.78;20901.31;5050033;28;20312;-62
2022/07/22 03:17:57;;;;;;;7.25;6.55;;;19.80;99.90;;;-141.84;66.99;20852.50;5049763;28;20243;-62
2022/07/22 03:20:27;;;;;;;6.20;5.70;;;19.70;99.90;;;-141.84;67.78;20838.28;5049799;28;20228;-61
2022/07/22 03:22:55;;;;;;;6.63;6.07;;;19.70;99.90;;;-141.84;67.82;20852.50;5049895;28;20236;-62
2022/07/22 03:25:24;;;;;;;6.90;6.30;;;19.70;99.90;;;-141.84;68.02;20817.94;5050538;28;20205;-62
2022/07/22 03:27:52;;;;;;;6.80;6.20;;;19.70;99.90;;;-141.84;67.10;20842.34;5049558;28;20240;-63
2022/07/22 03:30:20;;;;;;;6.75;6.15;;;19.80;99.90;;;-141.84;68.21;20787.47;5049750;28;20229;-63
2022/07/22 03:32:48;;;;;;;6.95;6.25;;;19.70;99.90;;;-141.84;68.19;20824.06;5049540;28;20627;-62
2022/07/22 03:35:19;;;;;;;7.25;6.55;;;19.70;99.90;;;-141.84;67.54;20830.16;5049760;28;20221;-62
2022/07/22 03:37:49;;;;;;;6.50;6.00;;;19.70;99.90;;;-141.84;68.29;20817.94;5049589;28;20210;-62
2022/07/22 03:40:17;;;;;;;8.13;7.32;;;19.70;99.90;;;-141.84;68.07;20832.19;5050071;28;20223;-62
2022/07/22 03:42:46;;;;;;;7.95;7.25;;;19.70;99.90;;;-141.84;67.29;20840.31;5049650;28;20240;-62
2022/07/22 03:45:14;;;;;;;7.38;6.60;;;19.70;99.90;;;-141.84;66.95;20862.69;5049572;28;20300;-61
2022/07/22 03:47:43;;;;;;;7.93;6.50;;;19.70;99.90;;;-141.84;65.93;20862.69;5049751;28;20312;-62
2022/07/22 03:50:11;;;;;;;7.93;7.22;;;19.90;99.90;;;-141.84;65.22;20939.94;5053388;28;20297;-62
2022/07/22 03:52:39;;;;;;;7.65;6.85;;;19.90;99.90;;;-141.84;64.93;20931.78;5054075;28;20289;-62
2022/07/22 03:55:09;;;;;;;7.43;6.72;;;20.00;99.90;;;-141.84;65.22;20915.53;5053320;28;20317;-63
2022/07/22 03:57:37;;;;;;;7.88;7.07;;;20.00;99.90;;;-141.84;65.21;20909.44;5053091;28;20323;-63
2022/07/22 04:00:07;;;;;;;12.88;6.63;;;20.00;99.90;;;-141.84;64.50;20923.66;5053131;28;20313;-62
2022/07/22 04:02:35;;;;;;;7.43;6.53;;;20.00;99.90;;;-141.84;65.59;20901.31;5052792;28;20217;-62
2022/07/22 04:05:05;;;;;;;7.60;6.50;;;20.20;99.90;;;-141.84;64.50;20927.72;5052910;28;20229;-62
2022/07/22 04:07:33;;;;;;;7.50;6.72;;;20.10;99.90;;;-141.84;64.88;20895.19;5053133;28;20288;-61
2022/07/22 04:10:05;;;;;;;7.32;6.63;;;20.10;99.90;;;-141.84;64.92;20939.94;5053036;28;20229;-62
2022/07/22 04:12:38;;;;;;;7.65;6.80;;;20.10;99.90;;;-141.84;63.91;20927.72;5052795;28;20235;-62
2022/07/22 04:15:09;;;;;;;9.15;6.85;;;20.20;99.90;;;-141.84;63.33;20990.75;5053010;28;20313;-62
2022/07/22 04:17:37;;;;;;;7.68;6.00;;;20.30;99.90;;;-141.84;63.24;20968.38;5052765;28;20235;-61
2022/07/22 04:20:07;;;;;;;6.60;6.10;;;20.30;99.90;;;-141.84;62.37;21011.09;5052872;28;20205;-63
2022/07/22 04:22:35;;;;;;;7.03;6.32;;;20.40;99.90;;;-141.84;63.01;21019.22;5053007;28;20277;-61
2022/07/22 04:25:04;;;;;;;7.13;6.43;;;20.50;99.90;;;-141.84;61.95;21029.38;5052797;28;20754;-62
2022/07/22 04:27:32;;;;;;;6.63;6.03;;;20.50;99.90;;;-141.84;61.88;21063.94;5052457;28;20692;-62
2022/07/22 04:30:02;;;;;;;7.22;6.55;;;20.50;99.90;;;-141.84;62.01;21080.19;5052666;28;20263;-63
2022/07/22 04:32:30;;;;;;;8.82;6.72;;;20.60;99.90;;;-141.84;62.09;21049.72;5052487;28;20323;-62
2022/07/22 04:34:58;;;;;;;6.72;6.13;;;20.70;99.90;;;-141.84;61.48;21039.53;5052718;28;20718;-61
2022/07/22 04:37:26;;;;;;;7.03;6.43;;;20.70;99.90;;;-141.84;60.91;21126.97;5052788;28;20218;-61
2022/07/22 04:39:55;;;;;;;7.07;6.32;;;20.70;99.90;;;-141.84;60.94;21116.78;5052187;28;20743;-62
2022/07/22 04:42:23;;;;;;;6.63;5.95;;;20.80;99.90;;;-141.84;61.06;21070.03;5052431;28;20270;-62
2022/07/22 04:44:51;;;;;;;6.38;5.78;;;20.80;99.90;;;-141.84;60.73;21086.31;5052405;28;20255;-61
2022/07/22 04:47:21;;;;;;;7.03;6.32;;;20.80;99.90;;;-141.84;61.27;21104.59;5053188;28;20445;-61
2022/07/22 04:49:49;;;;;;;7.25;6.07;;;20.80;99.90;;;-141.84;60.96;21102.56;5053625;28;20554;-61
2022/07/22 04:52:17;;;;;;;6.80;6.15;;;20.80;99.90;;;-141.84;61.43;21065.97;5053119;28;20217;-61
2022/07/22 04:54:47;;;;;;;7.53;6.82;;;20.80;99.90;;;-141.84;61.22;21065.97;5053066;28;20252;-62
2022/07/22 04:57:15;;;;;;;6.30;5.80;;;20.80;99.90;;;-141.84;61.11;21112.72;5053002;28;20236;-61
2022/07/22 04:59:43;;;;;;;6.35;5.78;;;20.80;99.90;;;-141.84;60.53;21108.66;5051696;28;20243;-61
2022/07/22 05:02:12;;;;;;;7.65;6.00;;;20.90;99.90;;;-141.84;57.82;21293.69;5052214;28;20623;-62
2022/07/22 05:04:41;;;;;;;6.93;6.18;;;21.40;99.90;;;-141.84;52.44;21625.09;5052200;28;20198;-63
2022/07/22 05:07:09;;;;;;;6.07;5.18;;;22.30;99.90;;;-141.84;48.98;21962.63;5052311;28;20724;-61
2022/07/22 05:09:37;;;;;;;6.25;5.65;;;23.30;99.90;;;-141.84;45.35;22285.97;5052175;28;20235;-63
2022/07/22 05:12:06;;;;;;;6.32;4.80;;;24.20;99.90;;;-141.84;46.03;22182.25;5052205;28;20264;-63
2022/07/22 05:14:34;;;;;;;7.97;5.25;;;24.60;99.90;;;-141.84;47.24;22005.34;5051904;28;20221;-63
2022/07/22 05:17:02;;;;;;;5.70;5.00;;;24.40;99.90;;;-141.84;49.32;21836.56;5052177;28;20201;-61
2022/07/22 05:19:31;;;;;;;10.25;5.88;;;24.00;99.90;;;-141.84;50.08;21753.19;5052615;28;20221;-62
2022/07/22 05:22:00;;;;;;;5.90;4.95;;;23.50;99.90;;;-141.84;51.99;21621.03;5051975;28;20359;-62
2022/07/22 05:24:28;;;;;;;6.97;4.97;;;23.00;99.90;;;-141.84;52.56;21562.06;5051798;28;20230;-62
2022/07/22 05:26:57;;;;;;;6.97;5.43;;;22.80;99.90;;;-141.84;54.08;21421.75;5051790;28;20231;-62
2022/07/22 05:29:25;;;;;;;6.63;5.55;;;22.50;99.90;;;-141.84;54.87;21383.13;5051792;28;20225;-61
2022/07/22 05:31:53;;;;;;;7.63;4.97;;;22.20;99.90;;;-141.84;56.18;21342.47;5051628;28;20288;-62
2022/07/22 05:34:22;;;;;;;6.85;5.50;;;22.00;99.90;;;-141.84;56.84;21281.47;5052001;28;20202;-61
2022/07/22 05:36:50;;;;;;;6.75;5.53;;;21.90;99.90;;;-141.84;57.10;21242.84;5051489;28;20736;-62
2022/07/22 05:39:19;;;;;;;9.43;5.65;;;21.90;99.90;;;-141.84;56.19;21314.00;5051619;28;20233;-61
2022/07/22 05:41:47;;;;;;;6.25;5.13;;;21.80;99.90;;;-141.84;56.45;21322.13;5051612;28;20232;-62
2022/07/22 05:44:22;;;;;;;5.05;4.65;;;21.80;99.90;;;-141.84;56.17;21322.13;5051752;28;20593;-62
2022/07/22 05:46:50;;;;;;;5.30;4.80;;;21.90;99.90;;;-141.84;55.85;21387.19;5051415;28;20686;-61
2022/07/22 05:49:19;;;;;;;5.90;4.90;;;22.10;99.90;;;-141.84;54.93;21403.47;5052009;28;20225;-61
2022/07/22 05:51:47;;;;;;;7.45;5.63;;;22.20;99.90;;;-141.84;55.40;21391.28;5051361;28;20728;-62
2022/07/22 05:54:15;;;;;;;9.32;5.90;;;22.20;99.90;;;-141.84;56.09;21364.84;5051346;28;20232;-63
2022/07/22 05:56:45;;;;;;;5.75;5.13;;;22.20;99.90;;;-141.84;55.20;21401.44;5051367;28;20632;-63
2022/07/22 05:59:13;;;;;;;5.00;4.60;;;22.30;99.90;;;-141.84;55.35;21393.31;5050806;28;20249;-62
2022/07/22 06:01:41;;;;;;;4.75;4.35;;;22.30;99.90;;;-141.84;54.95;21480.72;5051736;28;20197;-62
2022/07/22 06:04:09;;;;;;;4.53;4.13;;;22.40;99.90;;;-141.84;53.62;21551.91;5051071;28;20243;-62
2022/07/22 06:06:37;;;;;;;5.00;4.22;;;22.80;99.90;;;-141.84;51.59;21716.59;5051099;28;20232;-62
2022/07/22 06:09:05;;;;;;;7.57;6.88;;;23.30;99.90;;;-141.84;50.44;21777.59;5051268;28;20256;-64
2022/07/22 06:11:33;;;;;;;4.65;4.25;;;23.70;99.90;;;-141.84;49.30;21873.16;5051059;28;20252;-62
2022/07/22 06:14:03;;;;;;;4.65;4.03;;;24.00;99.90;;;-141.84;49.16;21867.06;5051396;28;20227;-63
2022/07/22 06:16:32;;;;;;;4.93;4.50;;;24.30;99.90;;;-141.84;48.57;21928.06;5051337;28;20590;-63
2022/07/22 06:19:00;;;;;;;4.72;4.20;;;24.50;99.90;;;-141.84;47.60;21968.72;5050920;28;20232;-62
2022/07/22 06:21:28;;;;;;;7.95;4.35;;;24.70;99.90;;;-141.84;47.95;21991.09;5050640;28;20583;-62
2022/07/22 06:23:57;;;;;;;3.90;3.58;;;24.60;99.90;;;-141.84;49.29;21838.59;5050929;28;20236;-62
2022/07/22 06:26:25;;;;;;;20.27;5.97;;;24.40;99.90;;;-141.84;50.07;21734.88;5050676;28;20256;-62
2022/07/22 06:28:53;;;;;;;142.15;20.42;;;24.20;99.90;;;-141.84;51.24;21684.06;5050790;28;20707;-62
2022/07/22 06:31:23;;;;;;;6.45;4.05;;;23.90;99.90;;;-141.84;51.28;21684.06;5051310;28;20630;-63
2022/07/22 06:33:51;;;;;;;32.90;7.72;;;23.60;99.90;;;-141.84;51.28;21663.72;5050690;28;20233;-62
2022/07/22 06:36:19;;;;;;;5.63;3.53;;;23.60;99.90;;;-141.84;51.07;21714.56;5050268;28;20221;-64
2022/07/22 06:38:47;;;;;;;3.78;3.25;;;23.50;99.90;;;-141.84;51.12;21645.44;5051090;28;20252;-64
2022/07/22 06:41:19;;;;;;;4.18;3.47;;;23.40;99.90;;;-141.84;51.18;21734.88;5050591;28;20229;-64
2022/07/22 06:43:48;;;;;;;3.60;3.30;;;23.50;99.90;;;-141.84;50.56;21757.25;5051038;28;20189;-64
2022/07/22 06:46:16;;;;;;;3.28;3.00;;;23.70;99.90;;;-141.84;51.00;21688.13;5050804;28;20423;-61
2022/07/22 06:48:46;;;;;;;3.55;3.25;;;23.80;99.90;;;-141.84;50.02;21757.25;5050537;28;20229;-62
2022/07/22 06:51:14;;;;;;;3.10;2.90;;;23.80;99.90;;;-141.84;50.10;21777.59;5050254;28;20248;-62
2022/07/22 06:53:42;;;;;;;4.60;3.15;;;23.90;99.90;;;-141.84;49.55;21814.19;5050844;28;20221;-63
2022/07/22 06:56:16;;;;;;;3.45;3.20;;;23.90;99.90;;;-141.84;49.72;21828.44;5050079;28;20225;-64
2022/07/22 06:58:44;;;;;;;4.45;3.33;;;24.00;99.90;;;-141.84;49.35;21856.91;5045042;28;20214;-63
2022/07/22 07:01:12;;;;;;;4.78;3.13;;;24.20;99.90;;;-141.84;48.73;21907.72;5045982;28;20229;-63
2022/07/22 07:03:41;;;;;;;3.72;3.38;;;24.30;99.90;;;-141.84;49.20;21897.56;5050536;28;20299;-64
2022/07/22 07:06:12;;;;;;;3.50;3.20;;;24.40;99.90;;;-141.84;48.87;21924.00;5050180;28;20221;-65
2022/07/22 07:08:42;;;;;;;4.80;3.60;;;24.40;99.90;;;-141.84;48.60;21913.84;5050625;28;20221;-64
2022/07/22 07:11:10;;;;;;;3.83;3.47;;;24.40;99.90;;;-141.84;48.74;21958.56;5050109;28;20609;-63
2022/07/22 07:13:39;;;;;;;3.95;3.65;;;24.60;99.90;;;-141.84;48.50;21995.16;5050825;28;20212;-62
2022/07/22 07:16:07;;;;;;;3.58;3.20;;;24.70;99.90;;;-141.84;47.78;22066.34;5049863;28;20605;-64
2022/07/22 07:18:35;;;;;;;3.40;3.10;;;25.00;99.90;;;-141.84;46.56;22155.81;5050184;28;20248;-62
2022/07/22 07:21:05;;;;;;;3.00;2.80;;;25.20;99.90;;;-141.84;46.26;22058.22;5050061;28;20270;-63
2022/07/22 07:23:36;;;;;;;3.25;2.60;;;25.20;99.90;;;-141.84;47.16;22048.03;5052028;28;20599;-63
2022/07/22 07:26:06;;;;;;;4.10;2.97;;;25.20;99.90;;;-141.84;47.94;21978.91;5054290;28;20181;-63
2022/07/22 07:28:34;;;;;;;14.95;3.65;;;25.00;99.90;;;-141.84;48.47;21921.97;5054725;28;20296;-64
2022/07/22 07:31:02;;;;;;;5.60;3.10;;;24.90;99.90;;;-141.84;49.27;21856.91;5053714;28;20304;-63
2022/07/22 07:33:31;;;;;;;6.13;3.80;;;24.70;99.90;;;-141.84;49.11;21873.16;5053769;28;20269;-64
2022/07/22 07:35:59;;;;;;;4.85;2.70;;;24.60;99.90;;;-141.84;48.93;21891.47;5051074;28;20734;-62
2022/07/22 07:38:27;;;;;;;2.75;2.50;;;24.60;99.90;;;-141.84;48.01;21930.09;5054353;28;20221;-63
2022/07/22 07:40:56;;;;;;;3.20;2.90;;;24.70;99.90;;;-141.84;47.82;21924.00;5054109;28;20707;-63
2022/07/22 07:43:24;;;;;;;4.38;3.05;;;24.70;99.90;;;-141.84;48.23;21891.47;5054349;28;20211;-63
2022/07/22 07:45:52;;;;;;;3.22;2.95;;;24.60;99.90;;;-141.84;48.27;21911.78;5054080;28;20316;-62
2022/07/22 07:48:21;;;;;;;3.28;2.97;;;24.50;99.90;;;-141.84;48.64;21883.31;5054342;28;20225;-64
2022/07/22 07:50:49;;;;;;;5.97;3.08;;;24.60;99.90;;;-141.84;48.24;21938.22;5053717;28;20304;-63
2022/07/22 07:53:18;;;;;;;2.72;2.53;;;24.60;99.90;;;-141.84;47.46;21950.44;5054238;28;20221;-63
2022/07/22 07:55:47;;;;;;;3.20;3.00;;;24.80;99.90;;;-141.84;47.54;21921.97;5054745;28;20198;-64
2022/07/22 07:58:16;;;;;;;3.00;2.70;;;24.80;99.90;;;-141.84;48.57;21814.19;5053644;28;20209;-61
2022/07/22 08:00:45;;;;;;;2.72;2.45;;;24.70;99.90;;;-141.84;49.63;21810.13;5053273;28;20229;-59
2022/07/22 08:03:13;;;;;;;4.95;2.58;;;24.50;99.90;;;-141.84;50.43;21757.25;5052867;28;20233;-58
2022/07/22 08:05:42;;;;;;;3.35;2.55;;;24.40;99.90;;;-141.84;49.72;21836.56;5053577;28;20246;-61
2022/07/22 08:08:10;;;;;;;3.88;2.85;;;24.40;99.90;;;-141.84;49.09;21873.16;5053788;28;20267;-61
2022/07/22 08:10:43;;;;;;;3.63;3.05;;;24.50;99.90;;;-141.84;48.22;21919.94;5054010;28;20205;-61
2022/07/22 08:13:30;;;;;;;3.50;2.50;;;24.60;99.90;;;-141.84;48.72;21891.47;5053768;28;20288;-61
2022/07/22 08:15:58;;;;;;;3.53;3.05;;;24.70;99.90;;;-141.84;46.91;21885.38;5053569;28;20313;-58
2022/07/22 08:18:27;;;;;;;2.95;2.70;;;24.70;99.90;;;-141.84;47.16;21873.16;5053209;28;20253;-63
2022/07/22 08:20:56;;;;;;;6.28;3.10;;;24.50;99.90;;;-141.84;47.35;21858.94;5053567;28;20233;-61
2022/07/22 08:23:27;;;;;;;22.95;5.00;;;24.60;99.90;;;-141.84;47.61;21875.19;5053204;28;20232;-61
2022/07/22 08:25:56;;;;;;;9.35;3.40;;;24.60;99.90;;;-141.84;47.44;21885.38;5053228;28;20300;-61
2022/07/22 08:28:24;;;;;;;3.97;2.55;;;24.60;99.90;;;-141.84;47.19;21867.06;5053458;28;20202;-61
2022/07/22 08:30:54;;;;;;;3.70;2.40;;;24.50;99.90;;;-141.84;46.67;21871.13;5052753;28;20225;-62
2022/07/22 08:33:22;;;;;;;5.57;3.00;;;24.50;99.90;;;-141.84;46.87;21889.44;5049999;28;20213;-63
2022/07/22 08:35:50;;;;;;;2.53;2.10;;;24.50;99.90;;;-141.84;46.03;21997.19;5052990;28;20248;-61
2022/07/22 08:38:18;;;;;;;3.33;2.90;;;24.80;99.90;;;-141.84;45.40;22111.09;5052989;28;20233;-61
2022/07/22 08:40:46;;;;;;;2.53;2.33;;;25.10;99.90;;;-141.84;44.55;22172.09;5053737;28;20448;-60
2022/07/22 08:43:15;;;;;;;2.10;2.00;;;25.40;99.90;;;-141.84;44.10;22277.84;5052775;28;20236;-62
2022/07/22 08:45:43;;;;;;;2.80;2.60;;;25.80;99.90;;;-141.84;43.30;22310.38;5052394;28;20229;-61
2022/07/22 08:48:13;;;;;;;3.60;2.45;;;26.00;99.90;;;-141.84;43.45;22237.16;5050737;28;20253;-61
2022/07/22 08:50:42;;;;;;;2.70;2.50;;;25.90;99.90;;;-141.84;44.53;22139.56;5053511;28;20221;-60
2022/07/22 08:53:11;;;;;;;2.75;2.55;;;25.70;99.90;;;-141.84;44.49;22131.41;5050772;28;20225;-63
2022/07/22 08:55:43;;;;;;;2.60;2.40;;;25.60;99.90;;;-141.84;44.10;22190.38;5053410;28;20296;-59
2022/07/22 08:58:14;;;;;;;2.45;2.15;;;25.60;99.90;;;-141.84;43.55;22267.66;5050756;28;20233;-62
2022/07/22 09:00:42;;;;;;;2.33;2.10;;;25.70;99.90;;;-141.84;42.74;22373.41;5033020;28;20317;-61
2022/07/22 09:03:27;;;;;;;2.35;2.15;;;26.00;99.90;;;-141.84;42.00;22363.25;5031037;28;20566;-61
2022/07/22 09:05:56;;;;;;;3.63;2.10;;;26.20;99.90;;;-141.84;41.92;22530.00;5052121;28;20232;-61
2022/07/22 09:08:24;;;;;;;2.03;1.92;;;26.40;99.90;;;-141.84;41.44;22471.03;5052215;28;20217;-61
2022/07/22 09:10:52;;;;;;;2.85;2.22;;;26.50;99.90;;;-141.84;41.48;22509.69;5053006;28;20201;-60
2022/07/22 09:13:20;;;;;;;2.55;2.05;;;26.60;99.90;;;-141.84;41.60;22485.28;5053196;28;20202;-61
2022/07/22 09:15:52;;;;;;;2.80;2.15;;;26.50;99.90;;;-141.84;41.44;22538.16;5052913;28;20308;-61
2022/07/22 09:18:22;;;;;;;3.00;2.20;;;26.60;99.90;;;-141.84;41.69;22503.56;5052052;28;20225;-61
2022/07/22 09:20:58;;;;;;;4.32;2.35;;;26.60;99.90;;;-141.84;41.65;22548.31;5051847;28;20229;-61
2022/07/22 09:23:26;;;;;;;2.45;1.92;;;26.60;99.90;;;-141.84;41.42;22509.69;5051548;28;20235;-60
2022/07/22 09:25:54;;;;;;;57.08;8.95;;;26.70;99.90;;;-141.84;40.93;22615.44;5052382;28;20202;-61
2022/07/22 09:28:24;;;;;;;2.33;2.13;;;26.70;99.90;;;-141.84;41.28;22568.66;5052841;28;20201;-60
2022/07/22 09:30:56;;;;;;;2.03;1.90;;;26.70;99.90;;;-141.84;41.34;22538.16;5052121;28;20308;-61
2022/07/22 09:33:28;;;;;;;2.38;2.00;;;26.70;99.90;;;-141.84;40.52;22603.22;5051932;28;20647;-61
2022/07/22 09:36:05;;;;;;;2.80;2.03;;;26.70;99.90;;;-141.84;41.20;22558.50;5051626;28;20282;-62
2022/07/22 09:38:34;;;;;;;5.25;2.63;;;26.70;99.90;;;-141.84;41.53;22568.66;5052038;28;20216;-62
2022/07/22 09:41:04;;;;;;;2.15;1.90;;;26.70;99.90;;;-141.84;40.93;22664.25;5051975;28;20221;-60
2022/07/22 09:43:37;;;;;;;4.97;2.45;;;27.00;99.90;;;-141.84;41.30;22586.97;5051783;28;20255;-62
2022/07/22 09:46:05;;;;;;;3.00;2.10;;;27.00;99.90;;;-141.84;41.63;22550.34;5051132;28;20891;-62
2022/07/22 09:48:37;;;;;;;1.90;1.80;;;26.90;99.90;;;-141.84;41.75;22536.13;5051470;28;20225;-60
2022/07/22 09:51:05;;;;;;;1.90;1.80;;;26.70;99.90;;;-141.84;41.88;22448.66;5051755;28;20225;-61
2022/07/22 09:53:35;;;;;;;6.55;2.38;;;26.40;99.90;;;-141.84;42.53;22410.03;5051718;28;20225;-61
2022/07/22 09:56:06;;;;;;;5.40;2.47;;;26.40;99.90;;;-141.84;42.01;22464.94;5051600;28;20679;-61
2022/07/22 09:58:34;;;;;;;1.73;1.63;;;26.40;99.90;;;-141.84;41.55;22536.13;5047356;28;20191;-61
2022/07/22 10:01:07;;;;;;;2.22;1.90;;;26.70;99.90;;;-141.84;41.30;22589.00;5029053;28;20226;-60
2022/07/22 10:03:41;;;;;;;2.22;1.85;;;26.70;99.90;;;-141.84;41.30;22647.97;5031186;28;20506;-61
2022/07/22 10:06:10;;;;;;;29.63;5.57;;;27.10;99.90;;;-141.84;40.21;22792.38;5028942;28;20228;-58
2022/07/22 10:08:39;;;;;;;3.20;2.22;;;27.30;99.90;;;-141.84;39.89;22800.50;5024350;28;20664;-61
2022/07/22 10:11:08;;;;;;;2.10;1.90;;;27.30;99.90;;;-141.84;40.22;22700.84;5012048;28;20203;-59
2022/07/22 10:13:40;;;;;;;1.65;1.50;;;27.30;99.90;;;-141.84;40.17;22767.97;5012392;28;20221;-61